< < Back
Terminal Aerodrome Forecast


Current Version              Previous Versions:   1  2  3  4  5  6  7  8  9  

Terminal Aerodrome Forecast

607
FTUS44 KBMX 231100
TAFANB
TAF
KANB 231120Z 2312/2412 36003KT P6SM SKC
     FM240300 00000KT P6SM SCT250=



Latest METAR

205
SAUS70 KWBC 232200 RRP
MTRANB
METAR KANB 232153Z AUTO 36005KT 10SM CLR 20/04 A3004 RMK AO2 SLP175
T02000044


USA.gov is the U.S. government's official web portal to all federal, state and local government web resources and services.